sensor_id;sensor_type;location;lat;lon;timestamp;P1;durP1;ratioP1;P2;durP2;ratioP2
21675;SDS011;10999;51.332;9.458;2023-05-20T00:01:16;6.13;;;2.38;;
21675;SDS011;10999;51.332;9.458;2023-05-20T00:03:43;4.45;;;1.75;;
21675;SDS011;10999;51.332;9.458;2023-05-20T00:06:12;6.32;;;2.08;;
21675;SDS011;10999;51.332;9.458;2023-05-20T00:08:40;6.68;;;2.20;;
21675;SDS011;10999;51.332;9.458;2023-05-20T00:11:13;4.88;;;2.00;;
21675;SDS011;10999;51.332;9.458;2023-05-20T00:13:53;4.88;;;2.25;;
21675;SDS011;10999;51.332;9.458;2023-05-20T00:16:34;5.10;;;1.85;;
21675;SDS011;10999;51.332;9.458;2023-05-20T00:19:10;4.28;;;1.90;;
21675;SDS011;10999;51.332;9.458;2023-05-20T00:21:45;4.90;;;2.17;;
21675;SDS011;10999;51.332;9.458;2023-05-20T00:24:13;5.03;;;2.10;;
21675;SDS011;10999;51.332;9.458;2023-05-20T00:26:53;5.32;;;2.03;;
21675;SDS011;10999;51.332;9.458;2023-05-20T00:29:22;6.20;;;2.38;;
21675;SDS011;10999;51.332;9.458;2023-05-20T00:32:11;5.78;;;2.30;;
21675;SDS011;10999;51.332;9.458;2023-05-20T00:34:54;5.90;;;1.80;;
21675;SDS011;10999;51.332;9.458;2023-05-20T00:37:29;4.93;;;2.10;;
21675;SDS011;10999;51.332;9.458;2023-05-20T00:39:57;5.47;;;2.35;;
21675;SDS011;10999;51.332;9.458;2023-05-20T00:42:33;5.38;;;1.90;;
21675;SDS011;10999;51.332;9.458;2023-05-20T00:45:02;4.95;;;2.30;;
21675;SDS011;10999;51.332;9.458;2023-05-20T00:47:31;5.68;;;2.70;;
21675;SDS011;10999;51.332;9.458;2023-05-20T00:50:37;5.80;;;2.17;;
21675;SDS011;10999;51.332;9.458;2023-05-20T00:53:22;5.88;;;2.47;;
21675;SDS011;10999;51.332;9.458;2023-05-20T00:56:06;5.13;;;2.15;;
21675;SDS011;10999;51.332;9.458;2023-05-20T00:59:04;4.85;;;2.00;;
21675;SDS011;10999;51.332;9.458;2023-05-20T01:01:31;5.22;;;1.73;;
21675;SDS011;10999;51.332;9.458;2023-05-20T01:03:58;5.32;;;2.20;;
21675;SDS011;10999;51.332;9.458;2023-05-20T01:06:25;5.70;;;1.92;;
21675;SDS011;10999;51.332;9.458;2023-05-20T01:08:53;4.40;;;2.00;;
21675;SDS011;10999;51.332;9.458;2023-05-20T01:11:33;7.15;;;2.53;;
21675;SDS011;10999;51.332;9.458;2023-05-20T01:14:07;4.03;;;1.67;;
21675;SDS011;10999;51.332;9.458;2023-05-20T01:16:37;7.00;;;2.35;;
21675;SDS011;10999;51.332;9.458;2023-05-20T01:19:06;7.28;;;2.20;;
21675;SDS011;10999;51.332;9.458;2023-05-20T01:21:54;6.88;;;2.10;;
21675;SDS011;10999;51.332;9.458;2023-05-20T01:24:23;5.72;;;2.00;;
21675;SDS011;10999;51.332;9.458;2023-05-20T01:26:49;6.20;;;2.25;;
21675;SDS011;10999;51.332;9.458;2023-05-20T01:29:16;6.25;;;2.05;;
21675;SDS011;10999;51.332;9.458;2023-05-20T01:31:43;6.22;;;2.38;;
21675;SDS011;10999;51.332;9.458;2023-05-20T01:34:13;5.00;;;2.10;;
21675;SDS011;10999;51.332;9.458;2023-05-20T01:36:40;5.70;;;2.33;;
21675;SDS011;10999;51.332;9.458;2023-05-20T01:39:09;5.13;;;1.92;;
21675;SDS011;10999;51.332;9.458;2023-05-20T01:41:37;5.75;;;2.20;;
21675;SDS011;10999;51.332;9.458;2023-05-20T01:44:05;6.40;;;2.22;;
21675;SDS011;10999;51.332;9.458;2023-05-20T01:46:32;6.10;;;2.10;;
21675;SDS011;10999;51.332;9.458;2023-05-20T01:48:59;4.95;;;2.30;;
21675;SDS011;10999;51.332;9.458;2023-05-20T01:51:26;6.88;;;2.35;;
21675;SDS011;10999;51.332;9.458;2023-05-20T01:53:54;6.50;;;2.30;;
21675;SDS011;10999;51.332;9.458;2023-05-20T01:56:21;4.88;;;2.40;;
21675;SDS011;10999;51.332;9.458;2023-05-20T01:58:48;4.82;;;1.90;;
21675;SDS011;10999;51.332;9.458;2023-05-20T02:01:15;5.15;;;2.10;;
21675;SDS011;10999;51.332;9.458;2023-05-20T02:03:41;5.82;;;2.35;;
21675;SDS011;10999;51.332;9.458;2023-05-20T02:06:08;4.03;;;2.03;;
21675;SDS011;10999;51.332;9.458;2023-05-20T02:08:36;6.30;;;2.30;;
21675;SDS011;10999;51.332;9.458;2023-05-20T02:11:03;3.88;;;1.92;;
21675;SDS011;10999;51.332;9.458;2023-05-20T02:13:30;4.78;;;1.80;;
21675;SDS011;10999;51.332;9.458;2023-05-20T02:15:56;6.60;;;2.33;;
21675;SDS011;10999;51.332;9.458;2023-05-20T02:18:23;5.38;;;1.88;;
21675;SDS011;10999;51.332;9.458;2023-05-20T02:20:51;5.60;;;2.20;;
21675;SDS011;10999;51.332;9.458;2023-05-20T02:23:18;6.57;;;1.92;;
21675;SDS011;10999;51.332;9.458;2023-05-20T02:25:45;6.10;;;2.40;;
21675;SDS011;10999;51.332;9.458;2023-05-20T02:28:12;7.45;;;2.28;;
21675;SDS011;10999;51.332;9.458;2023-05-20T02:30:39;4.22;;;1.95;;
21675;SDS011;10999;51.332;9.458;2023-05-20T02:33:06;6.28;;;2.38;;
21675;SDS011;10999;51.332;9.458;2023-05-20T02:35:34;7.50;;;2.22;;
21675;SDS011;10999;51.332;9.458;2023-05-20T02:38:00;5.57;;;2.20;;
21675;SDS011;10999;51.332;9.458;2023-05-20T02:40:27;7.80;;;2.33;;
21675;SDS011;10999;51.332;9.458;2023-05-20T02:42:54;5.80;;;2.20;;
21675;SDS011;10999;51.332;9.458;2023-05-20T02:45:21;5.30;;;2.33;;
21675;SDS011;10999;51.332;9.458;2023-05-20T02:47:47;7.28;;;2.90;;
21675;SDS011;10999;51.332;9.458;2023-05-20T02:50:14;5.70;;;2.22;;
21675;SDS011;10999;51.332;9.458;2023-05-20T02:52:41;7.70;;;2.47;;
21675;SDS011;10999;51.332;9.458;2023-05-20T02:55:08;6.07;;;2.50;;
21675;SDS011;10999;51.332;9.458;2023-05-20T02:57:35;5.65;;;2.60;;
21675;SDS011;10999;51.332;9.458;2023-05-20T03:00:06;4.70;;;2.20;;
21675;SDS011;10999;51.332;9.458;2023-05-20T03:02:36;7.60;;;2.70;;
21675;SDS011;10999;51.332;9.458;2023-05-20T03:05:03;7.38;;;3.03;;
21675;SDS011;10999;51.332;9.458;2023-05-20T03:07:32;6.00;;;2.20;;
21675;SDS011;10999;51.332;9.458;2023-05-20T03:10:01;5.07;;;2.42;;
21675;SDS011;10999;51.332;9.458;2023-05-20T03:12:28;7.50;;;2.63;;
21675;SDS011;10999;51.332;9.458;2023-05-20T03:14:56;6.72;;;2.50;;
21675;SDS011;10999;51.332;9.458;2023-05-20T03:17:24;6.13;;;2.58;;
21675;SDS011;10999;51.332;9.458;2023-05-20T03:19:51;10.65;;;2.78;;
21675;SDS011;10999;51.332;9.458;2023-05-20T03:22:17;13.07;;;3.10;;
21675;SDS011;10999;51.332;9.458;2023-05-20T03:24:44;6.85;;;2.90;;
21675;SDS011;10999;51.332;9.458;2023-05-20T03:27:11;8.50;;;2.60;;
21675;SDS011;10999;51.332;9.458;2023-05-20T03:29:38;8.00;;;3.13;;
21675;SDS011;10999;51.332;9.458;2023-05-20T03:32:05;7.63;;;2.65;;
21675;SDS011;10999;51.332;9.458;2023-05-20T03:34:35;5.85;;;2.53;;
21675;SDS011;10999;51.332;9.458;2023-05-20T03:37:03;6.35;;;2.65;;
21675;SDS011;10999;51.332;9.458;2023-05-20T03:39:30;7.10;;;3.00;;
21675;SDS011;10999;51.332;9.458;2023-05-20T03:41:57;6.10;;;2.42;;
21675;SDS011;10999;51.332;9.458;2023-05-20T03:44:23;5.45;;;2.53;;
21675;SDS011;10999;51.332;9.458;2023-05-20T03:46:50;7.05;;;2.88;;
21675;SDS011;10999;51.332;9.458;2023-05-20T03:49:17;6.95;;;3.30;;
21675;SDS011;10999;51.332;9.458;2023-05-20T03:51:44;6.82;;;3.17;;
21675;SDS011;10999;51.332;9.458;2023-05-20T03:54:11;7.18;;;2.88;;
21675;SDS011;10999;51.332;9.458;2023-05-20T03:56:38;8.65;;;3.20;;
21675;SDS011;10999;51.332;9.458;2023-05-20T03:59:04;5.78;;;2.88;;
21675;SDS011;10999;51.332;9.458;2023-05-20T04:01:31;7.15;;;2.75;;
21675;SDS011;10999;51.332;9.458;2023-05-20T04:03:59;6.53;;;2.80;;
21675;SDS011;10999;51.332;9.458;2023-05-20T04:06:25;8.52;;;3.25;;
21675;SDS011;10999;51.332;9.458;2023-05-20T04:08:52;8.10;;;3.10;;
21675;SDS011;10999;51.332;9.458;2023-05-20T04:11:19;7.22;;;2.78;;
21675;SDS011;10999;51.332;9.458;2023-05-20T04:13:46;8.23;;;3.13;;
21675;SDS011;10999;51.332;9.458;2023-05-20T04:16:13;7.85;;;3.17;;
21675;SDS011;10999;51.332;9.458;2023-05-20T04:18:40;8.18;;;3.60;;
21675;SDS011;10999;51.332;9.458;2023-05-20T04:21:07;8.77;;;3.42;;
21675;SDS011;10999;51.332;9.458;2023-05-20T04:23:33;9.68;;;3.40;;
21675;SDS011;10999;51.332;9.458;2023-05-20T04:26:00;7.68;;;3.20;;
21675;SDS011;10999;51.332;9.458;2023-05-20T04:28:27;7.28;;;3.35;;
21675;SDS011;10999;51.332;9.458;2023-05-20T04:30:59;8.02;;;3.40;;
21675;SDS011;10999;51.332;9.458;2023-05-20T04:33:29;8.45;;;3.78;;
21675;SDS011;10999;51.332;9.458;2023-05-20T04:35:58;9.02;;;3.65;;
21675;SDS011;10999;51.332;9.458;2023-05-20T04:38:26;8.05;;;3.92;;
21675;SDS011;10999;51.332;9.458;2023-05-20T04:40:55;8.63;;;3.38;;
21675;SDS011;10999;51.332;9.458;2023-05-20T04:43:23;7.80;;;3.45;;
21675;SDS011;10999;51.332;9.458;2023-05-20T04:45:51;9.25;;;3.72;;
21675;SDS011;10999;51.332;9.458;2023-05-20T04:48:21;8.15;;;3.90;;
21675;SDS011;10999;51.332;9.458;2023-05-20T04:50:48;8.98;;;4.10;;
21675;SDS011;10999;51.332;9.458;2023-05-20T04:53:15;8.95;;;3.92;;
21675;SDS011;10999;51.332;9.458;2023-05-20T04:55:42;8.32;;;3.90;;
21675;SDS011;10999;51.332;9.458;2023-05-20T04:58:10;8.50;;;4.28;;
21675;SDS011;10999;51.332;9.458;2023-05-20T05:00:40;10.82;;;4.03;;
21675;SDS011;10999;51.332;9.458;2023-05-20T05:03:08;11.43;;;4.28;;
21675;SDS011;10999;51.332;9.458;2023-05-20T05:05:35;9.70;;;4.07;;
21675;SDS011;10999;51.332;9.458;2023-05-20T05:08:04;8.35;;;4.57;;
21675;SDS011;10999;51.332;9.458;2023-05-20T05:10:32;9.90;;;4.35;;
21675;SDS011;10999;51.332;9.458;2023-05-20T05:12:58;9.55;;;4.45;;
21675;SDS011;10999;51.332;9.458;2023-05-20T05:15:26;10.18;;;4.30;;
21675;SDS011;10999;51.332;9.458;2023-05-20T05:17:53;9.77;;;4.65;;
21675;SDS011;10999;51.332;9.458;2023-05-20T05:20:20;7.90;;;3.88;;
21675;SDS011;10999;51.332;9.458;2023-05-20T05:22:47;9.98;;;4.47;;
21675;SDS011;10999;51.332;9.458;2023-05-20T05:25:15;10.40;;;4.30;;
21675;SDS011;10999;51.332;9.458;2023-05-20T05:27:42;9.65;;;4.72;;
21675;SDS011;10999;51.332;9.458;2023-05-20T05:30:10;9.57;;;4.55;;
21675;SDS011;10999;51.332;9.458;2023-05-20T05:32:36;9.57;;;4.60;;
21675;SDS011;10999;51.332;9.458;2023-05-20T05:35:04;9.63;;;4.63;;
21675;SDS011;10999;51.332;9.458;2023-05-20T05:37:33;8.98;;;4.10;;
21675;SDS011;10999;51.332;9.458;2023-05-20T05:40:00;9.57;;;4.65;;
21675;SDS011;10999;51.332;9.458;2023-05-20T05:42:27;9.48;;;5.18;;
21675;SDS011;10999;51.332;9.458;2023-05-20T05:44:53;9.82;;;4.35;;
21675;SDS011;10999;51.332;9.458;2023-05-20T05:47:20;9.70;;;4.35;;
21675;SDS011;10999;51.332;9.458;2023-05-20T05:49:47;8.15;;;4.43;;
21675;SDS011;10999;51.332;9.458;2023-05-20T05:52:14;9.90;;;4.82;;
21675;SDS011;10999;51.332;9.458;2023-05-20T05:54:41;10.48;;;4.57;;
21675;SDS011;10999;51.332;9.458;2023-05-20T05:57:07;9.88;;;5.05;;
21675;SDS011;10999;51.332;9.458;2023-05-20T05:59:35;11.57;;;5.03;;
21675;SDS011;10999;51.332;9.458;2023-05-20T06:02:01;9.55;;;4.25;;
21675;SDS011;10999;51.332;9.458;2023-05-20T06:04:28;10.20;;;4.82;;
21675;SDS011;10999;51.332;9.458;2023-05-20T06:06:55;14.75;;;5.65;;
21675;SDS011;10999;51.332;9.458;2023-05-20T06:09:22;12.10;;;5.18;;
21675;SDS011;10999;51.332;9.458;2023-05-20T06:11:49;10.38;;;5.15;;
21675;SDS011;10999;51.332;9.458;2023-05-20T06:14:15;11.20;;;5.05;;
21675;SDS011;10999;51.332;9.458;2023-05-20T06:16:42;10.20;;;4.63;;
21675;SDS011;10999;51.332;9.458;2023-05-20T06:19:09;11.95;;;5.25;;
21675;SDS011;10999;51.332;9.458;2023-05-20T06:21:36;8.52;;;4.45;;
21675;SDS011;10999;51.332;9.458;2023-05-20T06:24:03;10.95;;;5.35;;
21675;SDS011;10999;51.332;9.458;2023-05-20T06:26:31;11.23;;;4.85;;
21675;SDS011;10999;51.332;9.458;2023-05-20T06:28:57;9.40;;;4.90;;
21675;SDS011;10999;51.332;9.458;2023-05-20T06:31:24;10.30;;;4.93;;
21675;SDS011;10999;51.332;9.458;2023-05-20T06:33:51;9.82;;;5.05;;
21675;SDS011;10999;51.332;9.458;2023-05-20T06:36:18;10.70;;;4.80;;
21675;SDS011;10999;51.332;9.458;2023-05-20T06:38:45;9.50;;;5.47;;
21675;SDS011;10999;51.332;9.458;2023-05-20T06:41:12;12.40;;;5.78;;
21675;SDS011;10999;51.332;9.458;2023-05-20T06:43:38;11.48;;;4.90;;
21675;SDS011;10999;51.332;9.458;2023-05-20T06:46:05;10.65;;;5.45;;
21675;SDS011;10999;51.332;9.458;2023-05-20T06:48:32;11.65;;;5.60;;
21675;SDS011;10999;51.332;9.458;2023-05-20T06:50:59;12.50;;;5.72;;
21675;SDS011;10999;51.332;9.458;2023-05-20T06:53:26;11.48;;;6.18;;
21675;SDS011;10999;51.332;9.458;2023-05-20T06:55:53;11.65;;;5.25;;
21675;SDS011;10999;51.332;9.458;2023-05-20T06:58:23;12.60;;;5.07;;
21675;SDS011;10999;51.332;9.458;2023-05-20T07:00:50;11.43;;;5.47;;
21675;SDS011;10999;51.332;9.458;2023-05-20T07:03:17;10.25;;;4.57;;
21675;SDS011;10999;51.332;9.458;2023-05-20T07:05:44;12.13;;;5.85;;
21675;SDS011;10999;51.332;9.458;2023-05-20T07:08:10;11.80;;;5.55;;
21675;SDS011;10999;51.332;9.458;2023-05-20T07:10:37;10.30;;;5.03;;
21675;SDS011;10999;51.332;9.458;2023-05-20T07:13:04;10.77;;;5.53;;
21675;SDS011;10999;51.332;9.458;2023-05-20T07:15:31;10.90;;;5.22;;
21675;SDS011;10999;51.332;9.458;2023-05-20T07:17:58;10.70;;;5.03;;
21675;SDS011;10999;51.332;9.458;2023-05-20T07:20:25;10.60;;;5.10;;
21675;SDS011;10999;51.332;9.458;2023-05-20T07:22:52;12.65;;;5.25;;
21675;SDS011;10999;51.332;9.458;2023-05-20T07:25:22;9.55;;;4.60;;
21675;SDS011;10999;51.332;9.458;2023-05-20T07:27:49;10.35;;;4.57;;
21675;SDS011;10999;51.332;9.458;2023-05-20T07:30:16;9.05;;;4.78;;
21675;SDS011;10999;51.332;9.458;2023-05-20T07:32:43;10.70;;;5.10;;
21675;SDS011;10999;51.332;9.458;2023-05-20T07:35:10;11.60;;;5.32;;
21675;SDS011;10999;51.332;9.458;2023-05-20T07:37:36;11.60;;;5.32;;
21675;SDS011;10999;51.332;9.458;2023-05-20T07:40:03;10.85;;;5.60;;
21675;SDS011;10999;51.332;9.458;2023-05-20T07:42:31;11.65;;;5.30;;
21675;SDS011;10999;51.332;9.458;2023-05-20T07:44:57;12.05;;;5.25;;
21675;SDS011;10999;51.332;9.458;2023-05-20T07:47:24;11.25;;;5.53;;
21675;SDS011;10999;51.332;9.458;2023-05-20T07:49:51;13.82;;;5.72;;
21675;SDS011;10999;51.332;9.458;2023-05-20T07:52:18;14.05;;;5.47;;
21675;SDS011;10999;51.332;9.458;2023-05-20T07:54:44;11.02;;;5.55;;
21675;SDS011;10999;51.332;9.458;2023-05-20T07:57:11;11.82;;;4.97;;
21675;SDS011;10999;51.332;9.458;2023-05-20T07:59:38;12.68;;;5.88;;
21675;SDS011;10999;51.332;9.458;2023-05-20T08:02:05;10.90;;;5.13;;
21675;SDS011;10999;51.332;9.458;2023-05-20T08:04:32;12.50;;;5.50;;
21675;SDS011;10999;51.332;9.458;2023-05-20T08:07:00;10.60;;;5.47;;
21675;SDS011;10999;51.332;9.458;2023-05-20T08:09:27;14.68;;;5.47;;
21675;SDS011;10999;51.332;9.458;2023-05-20T08:11:55;11.98;;;5.57;;
21675;SDS011;10999;51.332;9.458;2023-05-20T08:14:22;13.70;;;5.78;;
21675;SDS011;10999;51.332;9.458;2023-05-20T08:16:48;12.77;;;5.50;;
21675;SDS011;10999;51.332;9.458;2023-05-20T08:19:19;11.50;;;5.38;;
21675;SDS011;10999;51.332;9.458;2023-05-20T08:21:46;13.10;;;6.13;;
21675;SDS011;10999;51.332;9.458;2023-05-20T08:24:13;13.48;;;5.82;;
21675;SDS011;10999;51.332;9.458;2023-05-20T08:26:40;12.93;;;5.93;;
21675;SDS011;10999;51.332;9.458;2023-05-20T08:29:07;13.77;;;5.72;;
21675;SDS011;10999;51.332;9.458;2023-05-20T08:31:34;13.95;;;6.15;;
21675;SDS011;10999;51.332;9.458;2023-05-20T08:34:01;12.02;;;6.13;;
21675;SDS011;10999;51.332;9.458;2023-05-20T08:36:28;11.52;;;5.97;;
21675;SDS011;10999;51.332;9.458;2023-05-20T08:38:54;14.45;;;5.72;;
21675;SDS011;10999;51.332;9.458;2023-05-20T08:41:22;10.88;;;5.47;;
21675;SDS011;10999;51.332;9.458;2023-05-20T08:43:50;11.50;;;5.13;;
21675;SDS011;10999;51.332;9.458;2023-05-20T08:46:18;11.30;;;5.63;;
21675;SDS011;10999;51.332;9.458;2023-05-20T08:48:47;12.13;;;6.05;;
21675;SDS011;10999;51.332;9.458;2023-05-20T08:51:15;12.75;;;6.30;;
21675;SDS011;10999;51.332;9.458;2023-05-20T08:53:42;11.80;;;6.13;;
21675;SDS011;10999;51.332;9.458;2023-05-20T08:56:09;11.85;;;6.10;;
21675;SDS011;10999;51.332;9.458;2023-05-20T08:58:38;12.02;;;6.32;;
21675;SDS011;10999;51.332;9.458;2023-05-20T09:01:04;12.30;;;6.65;;
21675;SDS011;10999;51.332;9.458;2023-05-20T09:03:32;11.43;;;6.00;;
21675;SDS011;10999;51.332;9.458;2023-05-20T09:06:03;11.38;;;5.50;;
21675;SDS011;10999;51.332;9.458;2023-05-20T09:08:31;10.70;;;6.25;;
21675;SDS011;10999;51.332;9.458;2023-05-20T09:10:58;13.38;;;5.93;;
21675;SDS011;10999;51.332;9.458;2023-05-20T09:13:26;11.18;;;5.57;;
21675;SDS011;10999;51.332;9.458;2023-05-20T09:15:54;12.23;;;5.40;;
21675;SDS011;10999;51.332;9.458;2023-05-20T09:18:21;10.80;;;5.45;;
21675;SDS011;10999;51.332;9.458;2023-05-20T09:20:49;9.88;;;5.13;;
21675;SDS011;10999;51.332;9.458;2023-05-20T09:23:18;11.18;;;5.95;;
21675;SDS011;10999;51.332;9.458;2023-05-20T09:25:50;10.90;;;5.35;;
21675;SDS011;10999;51.332;9.458;2023-05-20T09:28:18;10.30;;;5.30;;
21675;SDS011;10999;51.332;9.458;2023-05-20T09:30:49;10.43;;;5.03;;
21675;SDS011;10999;51.332;9.458;2023-05-20T09:33:16;10.85;;;5.22;;
21675;SDS011;10999;51.332;9.458;2023-05-20T09:35:43;10.02;;;4.75;;
21675;SDS011;10999;51.332;9.458;2023-05-20T09:38:10;8.68;;;4.68;;
21675;SDS011;10999;51.332;9.458;2023-05-20T09:40:38;10.43;;;4.80;;
21675;SDS011;10999;51.332;9.458;2023-05-20T09:43:08;10.57;;;4.82;;
21675;SDS011;10999;51.332;9.458;2023-05-20T09:45:36;11.82;;;4.88;;
21675;SDS011;10999;51.332;9.458;2023-05-20T09:48:03;9.95;;;4.97;;
21675;SDS011;10999;51.332;9.458;2023-05-20T09:50:31;9.07;;;4.60;;
21675;SDS011;10999;51.332;9.458;2023-05-20T09:53:00;10.52;;;4.28;;
21675;SDS011;10999;51.332;9.458;2023-05-20T09:55:28;9.90;;;5.13;;
21675;SDS011;10999;51.332;9.458;2023-05-20T09:57:57;8.48;;;4.05;;
21675;SDS011;10999;51.332;9.458;2023-05-20T10:00:27;9.40;;;4.65;;
21675;SDS011;10999;51.332;9.458;2023-05-20T10:02:55;12.25;;;5.10;;
21675;SDS011;10999;51.332;9.458;2023-05-20T10:05:23;9.18;;;5.10;;
21675;SDS011;10999;51.332;9.458;2023-05-20T10:19:14;10.05;;;4.72;;
21675;SDS011;10999;51.332;9.458;2023-05-20T10:21:59;10.27;;;4.75;;
21675;SDS011;10999;51.332;9.458;2023-05-20T10:24:37;11.93;;;4.72;;
21675;SDS011;10999;51.332;9.458;2023-05-20T10:29:49;12.32;;;5.55;;
21675;SDS011;10999;51.332;9.458;2023-05-20T10:32:29;10.18;;;4.88;;
21675;SDS011;10999;51.332;9.458;2023-05-20T10:35:01;13.05;;;6.75;;
21675;SDS011;10999;51.332;9.458;2023-05-20T10:37:43;10.52;;;5.32;;
21675;SDS011;10999;51.332;9.458;2023-05-20T10:40:14;8.95;;;4.55;;
21675;SDS011;10999;51.332;9.458;2023-05-20T10:45:11;12.02;;;5.63;;
21675;SDS011;10999;51.332;9.458;2023-05-20T10:47:53;12.40;;;4.88;;
21675;SDS011;10999;51.332;9.458;2023-05-20T10:50:36;11.52;;;5.57;;
21675;SDS011;10999;51.332;9.458;2023-05-20T10:53:05;11.13;;;5.50;;
21675;SDS011;10999;51.332;9.458;2023-05-20T10:55:51;10.82;;;5.55;;
21675;SDS011;10999;51.332;9.458;2023-05-20T10:58:23;10.32;;;5.47;;
21675;SDS011;10999;51.332;9.458;2023-05-20T11:00:52;11.18;;;4.63;;
21675;SDS011;10999;51.332;9.458;2023-05-20T11:03:22;10.45;;;5.07;;
21675;SDS011;10999;51.332;9.458;2023-05-20T11:05:50;8.43;;;4.68;;
21675;SDS011;10999;51.332;9.458;2023-05-20T11:08:17;9.75;;;4.80;;
21675;SDS011;10999;51.332;9.458;2023-05-20T11:10:54;10.07;;;4.88;;
21675;SDS011;10999;51.332;9.458;2023-05-20T11:13:22;9.70;;;4.43;;
21675;SDS011;10999;51.332;9.458;2023-05-20T11:15:49;10.43;;;4.47;;
21675;SDS011;10999;51.332;9.458;2023-05-20T11:18:16;9.98;;;4.78;;
21675;SDS011;10999;51.332;9.458;2023-05-20T11:20:44;8.85;;;4.43;;
21675;SDS011;10999;51.332;9.458;2023-05-20T11:23:12;11.57;;;4.88;;
21675;SDS011;10999;51.332;9.458;2023-05-20T11:25:40;12.93;;;6.68;;
21675;SDS011;10999;51.332;9.458;2023-05-20T11:28:13;10.98;;;5.53;;
21675;SDS011;10999;51.332;9.458;2023-05-20T11:30:43;9.15;;;4.55;;
21675;SDS011;10999;51.332;9.458;2023-05-20T11:33:11;11.95;;;5.57;;
21675;SDS011;10999;51.332;9.458;2023-05-20T11:35:43;10.55;;;5.22;;
21675;SDS011;10999;51.332;9.458;2023-05-20T11:38:18;8.70;;;4.28;;
21675;SDS011;10999;51.332;9.458;2023-05-20T11:40:51;11.90;;;5.40;;
21675;SDS011;10999;51.332;9.458;2023-05-20T11:43:22;9.90;;;4.55;;
21675;SDS011;10999;51.332;9.458;2023-05-20T11:45:53;10.50;;;4.20;;
21675;SDS011;10999;51.332;9.458;2023-05-20T11:48:22;11.82;;;4.85;;
21675;SDS011;10999;51.332;9.458;2023-05-20T11:50:49;9.45;;;4.85;;
21675;SDS011;10999;51.332;9.458;2023-05-20T11:53:19;8.70;;;4.05;;
21675;SDS011;10999;51.332;9.458;2023-05-20T11:55:54;9.23;;;4.03;;
21675;SDS011;10999;51.332;9.458;2023-05-20T11:58:23;9.15;;;3.95;;
21675;SDS011;10999;51.332;9.458;2023-05-20T12:00:52;9.48;;;4.40;;
21675;SDS011;10999;51.332;9.458;2023-05-20T12:03:34;10.60;;;4.40;;
21675;SDS011;10999;51.332;9.458;2023-05-20T12:06:02;10.75;;;4.93;;
21675;SDS011;10999;51.332;9.458;2023-05-20T12:08:29;8.13;;;4.43;;
21675;SDS011;10999;51.332;9.458;2023-05-20T12:10:56;8.98;;;4.38;;
21675;SDS011;10999;51.332;9.458;2023-05-20T12:13:23;9.05;;;4.20;;
21675;SDS011;10999;51.332;9.458;2023-05-20T12:15:50;9.10;;;4.03;;
21675;SDS011;10999;51.332;9.458;2023-05-20T12:18:16;9.95;;;4.55;;
21675;SDS011;10999;51.332;9.458;2023-05-20T12:20:43;9.63;;;3.97;;
21675;SDS011;10999;51.332;9.458;2023-05-20T12:23:10;8.25;;;3.95;;
21675;SDS011;10999;51.332;9.458;2023-05-20T12:25:37;8.90;;;3.95;;
21675;SDS011;10999;51.332;9.458;2023-05-20T12:28:04;9.98;;;4.53;;
21675;SDS011;10999;51.332;9.458;2023-05-20T12:30:31;8.07;;;4.28;;
21675;SDS011;10999;51.332;9.458;2023-05-20T12:32:59;9.52;;;4.63;;
21675;SDS011;10999;51.332;9.458;2023-05-20T12:35:39;8.27;;;3.72;;
21675;SDS011;10999;51.332;9.458;2023-05-20T12:38:07;8.43;;;4.05;;
21675;SDS011;10999;51.332;9.458;2023-05-20T12:40:34;9.15;;;4.63;;
21675;SDS011;10999;51.332;9.458;2023-05-20T12:43:02;10.00;;;4.22;;
21675;SDS011;10999;51.332;9.458;2023-05-20T12:45:29;9.40;;;4.85;;
21675;SDS011;10999;51.332;9.458;2023-05-20T12:47:56;7.90;;;4.20;;
21675;SDS011;10999;51.332;9.458;2023-05-20T12:50:23;11.07;;;4.68;;
21675;SDS011;10999;51.332;9.458;2023-05-20T12:52:51;9.35;;;4.72;;
21675;SDS011;10999;51.332;9.458;2023-05-20T12:55:17;9.63;;;4.75;;
21675;SDS011;10999;51.332;9.458;2023-05-20T12:57:45;10.73;;;4.28;;
21675;SDS011;10999;51.332;9.458;2023-05-20T13:00:12;9.60;;;4.93;;
21675;SDS011;10999;51.332;9.458;2023-05-20T13:02:40;10.68;;;5.88;;
21675;SDS011;10999;51.332;9.458;2023-05-20T13:05:08;12.50;;;4.70;;
21675;SDS011;10999;51.332;9.458;2023-05-20T13:07:36;9.93;;;4.63;;
21675;SDS011;10999;51.332;9.458;2023-05-20T13:10:03;9.82;;;4.78;;
21675;SDS011;10999;51.332;9.458;2023-05-20T13:12:30;10.48;;;4.70;;
21675;SDS011;10999;51.332;9.458;2023-05-20T13:14:57;12.27;;;5.47;;
21675;SDS011;10999;51.332;9.458;2023-05-20T13:17:26;10.95;;;4.80;;
21675;SDS011;10999;51.332;9.458;2023-05-20T13:20:04;12.77;;;5.50;;
21675;SDS011;10999;51.332;9.458;2023-05-20T13:22:32;11.82;;;5.43;;
21675;SDS011;10999;51.332;9.458;2023-05-20T13:24:59;11.25;;;4.85;;
21675;SDS011;10999;51.332;9.458;2023-05-20T13:27:26;13.70;;;5.90;;
21675;SDS011;10999;51.332;9.458;2023-05-20T13:29:53;13.60;;;5.80;;
21675;SDS011;10999;51.332;9.458;2023-05-20T13:32:20;10.57;;;5.30;;
21675;SDS011;10999;51.332;9.458;2023-05-20T13:34:46;11.02;;;5.10;;
21675;SDS011;10999;51.332;9.458;2023-05-20T13:37:13;11.27;;;5.50;;
21675;SDS011;10999;51.332;9.458;2023-05-20T13:39:40;10.52;;;5.82;;
21675;SDS011;10999;51.332;9.458;2023-05-20T13:42:07;12.73;;;5.55;;
21675;SDS011;10999;51.332;9.458;2023-05-20T13:44:34;10.27;;;5.60;;
21675;SDS011;10999;51.332;9.458;2023-05-20T13:47:01;10.50;;;4.32;;
21675;SDS011;10999;51.332;9.458;2023-05-20T13:49:28;12.85;;;5.00;;
21675;SDS011;10999;51.332;9.458;2023-05-20T13:51:54;12.00;;;5.40;;
21675;SDS011;10999;51.332;9.458;2023-05-20T13:54:21;10.38;;;5.63;;
21675;SDS011;10999;51.332;9.458;2023-05-20T13:56:48;10.13;;;5.15;;
21675;SDS011;10999;51.332;9.458;2023-05-20T13:59:15;12.70;;;5.45;;
21675;SDS011;10999;51.332;9.458;2023-05-20T14:01:42;11.23;;;5.85;;
21675;SDS011;10999;51.332;9.458;2023-05-20T14:04:11;12.77;;;5.63;;
21675;SDS011;10999;51.332;9.458;2023-05-20T14:06:38;12.50;;;5.75;;
21675;SDS011;10999;51.332;9.458;2023-05-20T14:09:05;11.80;;;5.78;;
21675;SDS011;10999;51.332;9.458;2023-05-20T14:11:34;14.40;;;5.32;;
21675;SDS011;10999;51.332;9.458;2023-05-20T14:14:01;11.75;;;6.07;;
21675;SDS011;10999;51.332;9.458;2023-05-20T14:16:27;12.20;;;6.13;;
21675;SDS011;10999;51.332;9.458;2023-05-20T14:18:54;11.88;;;5.82;;
21675;SDS011;10999;51.332;9.458;2023-05-20T14:21:21;14.40;;;6.28;;
21675;SDS011;10999;51.332;9.458;2023-05-20T14:23:48;13.15;;;6.05;;
21675;SDS011;10999;51.332;9.458;2023-05-20T14:26:15;14.43;;;7.03;;
21675;SDS011;10999;51.332;9.458;2023-05-20T14:28:41;13.18;;;6.03;;
21675;SDS011;10999;51.332;9.458;2023-05-20T14:31:08;16.90;;;7.13;;
21675;SDS011;10999;51.332;9.458;2023-05-20T14:33:36;13.27;;;5.97;;
21675;SDS011;10999;51.332;9.458;2023-05-20T14:36:02;15.23;;;6.20;;
21675;SDS011;10999;51.332;9.458;2023-05-20T14:38:30;14.25;;;7.30;;
21675;SDS011;10999;51.332;9.458;2023-05-20T14:40:56;13.30;;;6.30;;
21675;SDS011;10999;51.332;9.458;2023-05-20T14:43:23;12.13;;;6.00;;
21675;SDS011;10999;51.332;9.458;2023-05-20T14:45:51;13.10;;;6.75;;
21675;SDS011;10999;51.332;9.458;2023-05-20T14:48:18;12.95;;;7.30;;
21675;SDS011;10999;51.332;9.458;2023-05-20T14:50:45;18.33;;;8.15;;
21675;SDS011;10999;51.332;9.458;2023-05-20T14:53:15;13.20;;;6.30;;
21675;SDS011;10999;51.332;9.458;2023-05-20T14:55:42;20.45;;;6.70;;
21675;SDS011;10999;51.332;9.458;2023-05-20T14:58:09;13.82;;;7.10;;
21675;SDS011;10999;51.332;9.458;2023-05-20T15:00:36;13.73;;;6.72;;
21675;SDS011;10999;51.332;9.458;2023-05-20T15:03:03;15.25;;;7.15;;
21675;SDS011;10999;51.332;9.458;2023-05-20T15:05:30;15.38;;;7.40;;